Northford, Connecticut
Current Conditions -  °F | °C
As of 4:53 PM on Monday 22 Dec 2014 (Local Time) from KMMK Reporting Station
Overcast Overcast  
Wind Chill: 41°   Ceiling: 2500
Heat Index: 41°   Visibility: 10mi
Dew Point: 34°   Wind: 0mph
Humidity: 76%   Direction: NA
Pressure: 30.28"   Gusts: NA
Location:  41.39°N, 72.79°W
Report Text: KMMK 222153Z AUTO 00000KT 10SM BKN025 OVC048 05/01 A3028 RMK AO2 SLP255 T00500011 TSNO
Loading
Personal Weather Stations






























Interactive Weather Map New forecast layout! Learn more

10-Day Weather Forecast

Advertisements
Track Severe Weather on mobile